sensor_id;sensor_type;location;lat;lon;timestamp;temperature;humidity
34927;DHT22;21132;48.308;14.274;2022-09-21T00:02:24;11.60;68.00
34927;DHT22;21132;48.308;14.274;2022-09-21T00:04:49;11.60;68.00
34927;DHT22;21132;48.308;14.274;2022-09-21T00:07:15;11.60;68.10
34927;DHT22;21132;48.308;14.274;2022-09-21T00:09:41;11.60;67.90
34927;DHT22;21132;48.308;14.274;2022-09-21T00:12:06;11.60;67.70
34927;DHT22;21132;48.308;14.274;2022-09-21T00:14:33;11.50;67.50
34927;DHT22;21132;48.308;14.274;2022-09-21T00:16:59;11.50;67.50
34927;DHT22;21132;48.308;14.274;2022-09-21T00:19:24;11.50;67.70
34927;DHT22;21132;48.308;14.274;2022-09-21T00:21:53;11.50;67.90
34927;DHT22;21132;48.308;14.274;2022-09-21T00:24:18;11.40;67.90
34927;DHT22;21132;48.308;14.274;2022-09-21T00:26:44;11.40;67.90
34927;DHT22;21132;48.308;14.274;2022-09-21T00:29:09;11.40;68.60
34927;DHT22;21132;48.308;14.274;2022-09-21T00:31:35;11.40;67.80
34927;DHT22;21132;48.308;14.274;2022-09-21T00:34:01;11.40;67.70
34927;DHT22;21132;48.308;14.274;2022-09-21T00:36:28;11.30;67.50
34927;DHT22;21132;48.308;14.274;2022-09-21T00:38:57;11.30;67.50
34927;DHT22;21132;48.308;14.274;2022-09-21T00:41:23;11.20;67.50
34927;DHT22;21132;48.308;14.274;2022-09-21T00:46:34;11.20;67.90
34927;DHT22;21132;48.308;14.274;2022-09-21T00:49:00;11.20;67.90
34927;DHT22;21132;48.308;14.274;2022-09-21T00:51:26;11.10;67.70
34927;DHT22;21132;48.308;14.274;2022-09-21T00:53:52;11.10;67.60
34927;DHT22;21132;48.308;14.274;2022-09-21T00:56:21;11.10;67.70
34927;DHT22;21132;48.308;14.274;2022-09-21T00:58:48;11.10;67.80
34927;DHT22;21132;48.308;14.274;2022-09-21T01:01:15;11.00;67.70
34927;DHT22;21132;48.308;14.274;2022-09-21T01:03:43;11.00;67.80
34927;DHT22;21132;48.308;14.274;2022-09-21T01:06:11;11.00;68.10
34927;DHT22;21132;48.308;14.274;2022-09-21T01:08:37;11.00;68.30
34927;DHT22;21132;48.308;14.274;2022-09-21T01:11:20;11.00;68.40
34927;DHT22;21132;48.308;14.274;2022-09-21T01:16:20;11.00;68.60
34927;DHT22;21132;48.308;14.274;2022-09-21T01:18:51;11.00;68.70
34927;DHT22;21132;48.308;14.274;2022-09-21T01:21:21;10.90;68.80
34927;DHT22;21132;48.308;14.274;2022-09-21T01:31:27;10.90;68.80
34927;DHT22;21132;48.308;14.274;2022-09-21T01:33:57;10.90;68.80
34927;DHT22;21132;48.308;14.274;2022-09-21T01:36:24;10.90;68.80
34927;DHT22;21132;48.308;14.274;2022-09-21T01:38:54;10.80;68.80
34927;DHT22;21132;48.308;14.274;2022-09-21T01:41:21;10.80;68.90
34927;DHT22;21132;48.308;14.274;2022-09-21T01:43:52;10.70;69.00
34927;DHT22;21132;48.308;14.274;2022-09-21T01:46:20;10.70;69.00
34927;DHT22;21132;48.308;14.274;2022-09-21T01:48:48;10.70;69.00
34927;DHT22;21132;48.308;14.274;2022-09-21T01:51:15;10.70;69.00
34927;DHT22;21132;48.308;14.274;2022-09-21T01:53:46;10.70;69.00
34927;DHT22;21132;48.308;14.274;2022-09-21T01:56:18;10.70;69.00
34927;DHT22;21132;48.308;14.274;2022-09-21T01:58:54;10.70;69.00
34927;DHT22;21132;48.308;14.274;2022-09-21T02:01:23;10.70;69.00
34927;DHT22;21132;48.308;14.274;2022-09-21T02:04:01;10.70;69.10
34927;DHT22;21132;48.308;14.274;2022-09-21T02:06:28;10.70;69.10
34927;DHT22;21132;48.308;14.274;2022-09-21T02:08:54;10.70;69.20
34927;DHT22;21132;48.308;14.274;2022-09-21T02:11:20;10.70;69.20
34927;DHT22;21132;48.308;14.274;2022-09-21T02:13:47;10.80;69.20
34927;DHT22;21132;48.308;14.274;2022-09-21T02:16:19;10.80;69.10
34927;DHT22;21132;48.308;14.274;2022-09-21T02:18:55;10.80;69.10
34927;DHT22;21132;48.308;14.274;2022-09-21T02:21:26;10.80;69.10
34927;DHT22;21132;48.308;14.274;2022-09-21T02:23:57;10.80;69.10
34927;DHT22;21132;48.308;14.274;2022-09-21T02:26:39;10.90;69.10
34927;DHT22;21132;48.308;14.274;2022-09-21T02:29:12;10.90;69.10
34927;DHT22;21132;48.308;14.274;2022-09-21T02:31:51;10.90;69.10
34927;DHT22;21132;48.308;14.274;2022-09-21T02:35:01;10.90;69.10
34927;DHT22;21132;48.308;14.274;2022-09-21T02:42:22;11.00;69.20
34927;DHT22;21132;48.308;14.274;2022-09-21T02:44:58;11.00;69.20
34927;DHT22;21132;48.308;14.274;2022-09-21T02:47:29;11.00;69.20
34927;DHT22;21132;48.308;14.274;2022-09-21T02:50:10;11.00;69.20
34927;DHT22;21132;48.308;14.274;2022-09-21T02:52:37;11.10;69.20
34927;DHT22;21132;48.308;14.274;2022-09-21T02:55:05;11.10;69.20
34927;DHT22;21132;48.308;14.274;2022-09-21T02:57:31;11.20;69.10
34927;DHT22;21132;48.308;14.274;2022-09-21T02:59:57;11.20;69.00
34927;DHT22;21132;48.308;14.274;2022-09-21T03:02:22;11.20;68.90
34927;DHT22;21132;48.308;14.274;2022-09-21T03:04:48;11.20;69.00
34927;DHT22;21132;48.308;14.274;2022-09-21T03:07:14;11.20;69.00
34927;DHT22;21132;48.308;14.274;2022-09-21T03:09:40;11.20;69.00
34927;DHT22;21132;48.308;14.274;2022-09-21T03:12:06;11.30;69.10
34927;DHT22;21132;48.308;14.274;2022-09-21T03:14:32;11.30;69.10
34927;DHT22;21132;48.308;14.274;2022-09-21T03:16:58;11.30;69.10
34927;DHT22;21132;48.308;14.274;2022-09-21T03:19:23;11.40;69.20
34927;DHT22;21132;48.308;14.274;2022-09-21T03:21:50;11.40;69.20
34927;DHT22;21132;48.308;14.274;2022-09-21T03:24:16;11.40;69.10
34927;DHT22;21132;48.308;14.274;2022-09-21T03:27:01;11.50;69.10
34927;DHT22;21132;48.308;14.274;2022-09-21T03:29:27;11.50;69.10
34927;DHT22;21132;48.308;14.274;2022-09-21T03:31:53;11.50;69.20
34927;DHT22;21132;48.308;14.274;2022-09-21T03:34:20;11.60;69.20
34927;DHT22;21132;48.308;14.274;2022-09-21T03:36:46;11.60;69.20
34927;DHT22;21132;48.308;14.274;2022-09-21T03:39:12;11.60;69.20
34927;DHT22;21132;48.308;14.274;2022-09-21T03:41:38;11.60;69.20
34927;DHT22;21132;48.308;14.274;2022-09-21T03:44:03;11.70;69.10
34927;DHT22;21132;48.308;14.274;2022-09-21T03:46:29;11.70;69.10
34927;DHT22;21132;48.308;14.274;2022-09-21T03:48:55;11.70;69.00
34927;DHT22;21132;48.308;14.274;2022-09-21T03:51:20;11.70;68.90
34927;DHT22;21132;48.308;14.274;2022-09-21T03:53:46;11.70;68.90
34927;DHT22;21132;48.308;14.274;2022-09-21T03:56:12;11.70;68.90
34927;DHT22;21132;48.308;14.274;2022-09-21T03:58:37;11.70;68.80
34927;DHT22;21132;48.308;14.274;2022-09-21T04:01:03;11.70;68.80
34927;DHT22;21132;48.308;14.274;2022-09-21T04:03:29;11.80;68.70
34927;DHT22;21132;48.308;14.274;2022-09-21T04:05:54;11.80;68.70
34927;DHT22;21132;48.308;14.274;2022-09-21T04:08:20;11.70;68.40
34927;DHT22;21132;48.308;14.274;2022-09-21T04:10:45;11.70;68.30
34927;DHT22;21132;48.308;14.274;2022-09-21T04:13:11;11.70;68.20
34927;DHT22;21132;48.308;14.274;2022-09-21T04:15:37;11.60;68.00
34927;DHT22;21132;48.308;14.274;2022-09-21T04:18:03;11.60;68.00
34927;DHT22;21132;48.308;14.274;2022-09-21T04:20:30;11.50;68.00
34927;DHT22;21132;48.308;14.274;2022-09-21T04:22:56;11.50;68.10
34927;DHT22;21132;48.308;14.274;2022-09-21T04:25:22;11.50;68.20
34927;DHT22;21132;48.308;14.274;2022-09-21T04:27:47;11.50;68.20
34927;DHT22;21132;48.308;14.274;2022-09-21T04:30:14;11.50;68.30
34927;DHT22;21132;48.308;14.274;2022-09-21T04:32:39;11.50;68.30
34927;DHT22;21132;48.308;14.274;2022-09-21T04:35:05;11.50;68.30
34927;DHT22;21132;48.308;14.274;2022-09-21T04:37:31;11.50;68.30
34927;DHT22;21132;48.308;14.274;2022-09-21T04:39:56;11.50;68.40
34927;DHT22;21132;48.308;14.274;2022-09-21T04:42:23;11.50;68.40
34927;DHT22;21132;48.308;14.274;2022-09-21T04:44:48;11.60;68.50
34927;DHT22;21132;48.308;14.274;2022-09-21T04:47:15;11.60;68.50
34927;DHT22;21132;48.308;14.274;2022-09-21T04:49:40;11.60;68.50
34927;DHT22;21132;48.308;14.274;2022-09-21T04:52:06;11.70;68.50
34927;DHT22;21132;48.308;14.274;2022-09-21T04:54:32;11.70;68.50
34927;DHT22;21132;48.308;14.274;2022-09-21T04:56:57;11.70;68.50
34927;DHT22;21132;48.308;14.274;2022-09-21T04:59:23;11.70;68.50
34927;DHT22;21132;48.308;14.274;2022-09-21T05:01:49;11.80;68.60
34927;DHT22;21132;48.308;14.274;2022-09-21T05:04:15;11.70;68.50
34927;DHT22;21132;48.308;14.274;2022-09-21T05:06:40;11.80;68.50
34927;DHT22;21132;48.308;14.274;2022-09-21T05:09:07;11.80;68.50
34927;DHT22;21132;48.308;14.274;2022-09-21T05:11:51;11.80;68.40
34927;DHT22;21132;48.308;14.274;2022-09-21T05:14:17;11.80;68.30
34927;DHT22;21132;48.308;14.274;2022-09-21T05:16:43;11.80;68.30
34927;DHT22;21132;48.308;14.274;2022-09-21T05:19:08;11.80;68.30
34927;DHT22;21132;48.308;14.274;2022-09-21T05:21:34;11.80;68.40
34927;DHT22;21132;48.308;14.274;2022-09-21T05:24:01;11.80;68.50
34927;DHT22;21132;48.308;14.274;2022-09-21T05:26:28;11.70;68.50
34927;DHT22;21132;48.308;14.274;2022-09-21T05:28:53;11.80;68.50
34927;DHT22;21132;48.308;14.274;2022-09-21T05:31:34;11.70;68.40
34927;DHT22;21132;48.308;14.274;2022-09-21T05:39:12;11.70;68.40
34927;DHT22;21132;48.308;14.274;2022-09-21T05:41:38;11.70;68.60
34927;DHT22;21132;48.308;14.274;2022-09-21T05:44:04;11.70;68.70
34927;DHT22;21132;48.308;14.274;2022-09-21T05:46:40;11.70;68.90
34927;DHT22;21132;48.308;14.274;2022-09-21T05:51:47;11.70;69.10
34927;DHT22;21132;48.308;14.274;2022-09-21T05:54:20;11.80;69.20
34927;DHT22;21132;48.308;14.274;2022-09-21T05:56:48;11.80;69.20
34927;DHT22;21132;48.308;14.274;2022-09-21T06:02:07;12.00;69.30
34927;DHT22;21132;48.308;14.274;2022-09-21T06:04:37;12.00;69.40
34927;DHT22;21132;48.308;14.274;2022-09-21T06:07:03;12.10;69.40
34927;DHT22;21132;48.308;14.274;2022-09-21T06:09:28;12.20;69.50
34927;DHT22;21132;48.308;14.274;2022-09-21T06:11:54;12.20;69.50
34927;DHT22;21132;48.308;14.274;2022-09-21T06:14:19;12.30;69.40
34927;DHT22;21132;48.308;14.274;2022-09-21T06:16:50;12.40;69.30
34927;DHT22;21132;48.308;14.274;2022-09-21T06:19:16;12.40;68.90
34927;DHT22;21132;48.308;14.274;2022-09-21T06:21:41;12.40;68.70
34927;DHT22;21132;48.308;14.274;2022-09-21T06:24:07;12.40;68.60
34927;DHT22;21132;48.308;14.274;2022-09-21T06:26:33;12.50;68.60
34927;DHT22;21132;48.308;14.274;2022-09-21T06:28:59;12.50;68.60
34927;DHT22;21132;48.308;14.274;2022-09-21T06:31:27;12.60;68.60
34927;DHT22;21132;48.308;14.274;2022-09-21T06:33:54;12.60;68.50
34927;DHT22;21132;48.308;14.274;2022-09-21T06:36:19;12.60;68.40
34927;DHT22;21132;48.308;14.274;2022-09-21T06:38:45;12.70;68.40
34927;DHT22;21132;48.308;14.274;2022-09-21T06:41:11;12.80;68.50
34927;DHT22;21132;48.308;14.274;2022-09-21T06:43:36;12.80;68.40
34927;DHT22;21132;48.308;14.274;2022-09-21T06:46:02;12.90;68.60
34927;DHT22;21132;48.308;14.274;2022-09-21T06:48:28;12.90;68.60
34927;DHT22;21132;48.308;14.274;2022-09-21T06:51:01;13.00;68.50
34927;DHT22;21132;48.308;14.274;2022-09-21T06:53:27;13.10;68.30
34927;DHT22;21132;48.308;14.274;2022-09-21T06:55:58;13.10;67.90
34927;DHT22;21132;48.308;14.274;2022-09-21T06:58:24;13.20;67.80
34927;DHT22;21132;48.308;14.274;2022-09-21T07:00:51;13.20;67.70
34927;DHT22;21132;48.308;14.274;2022-09-21T07:03:17;13.20;67.60
34927;DHT22;21132;48.308;14.274;2022-09-21T07:05:44;13.20;67.40
34927;DHT22;21132;48.308;14.274;2022-09-21T07:08:10;13.30;67.20
34927;DHT22;21132;48.308;14.274;2022-09-21T07:10:36;13.30;67.10
34927;DHT22;21132;48.308;14.274;2022-09-21T07:13:02;13.40;67.10
34927;DHT22;21132;48.308;14.274;2022-09-21T07:15:28;13.40;67.00
34927;DHT22;21132;48.308;14.274;2022-09-21T07:17:55;13.40;66.90
34927;DHT22;21132;48.308;14.274;2022-09-21T07:20:20;13.50;67.10
34927;DHT22;21132;48.308;14.274;2022-09-21T07:22:46;13.60;67.30
34927;DHT22;21132;48.308;14.274;2022-09-21T07:25:12;13.60;67.30
34927;DHT22;21132;48.308;14.274;2022-09-21T07:27:37;13.70;67.20
34927;DHT22;21132;48.308;14.274;2022-09-21T07:30:04;13.70;67.00
34927;DHT22;21132;48.308;14.274;2022-09-21T07:32:29;13.80;66.90
34927;DHT22;21132;48.308;14.274;2022-09-21T07:34:56;13.90;66.90
34927;DHT22;21132;48.308;14.274;2022-09-21T07:37:22;13.90;66.90
34927;DHT22;21132;48.308;14.274;2022-09-21T07:39:49;13.90;66.90
34927;DHT22;21132;48.308;14.274;2022-09-21T07:42:15;14.00;66.80
34927;DHT22;21132;48.308;14.274;2022-09-21T07:44:42;14.10;66.70
34927;DHT22;21132;48.308;14.274;2022-09-21T07:47:08;14.10;66.40
34927;DHT22;21132;48.308;14.274;2022-09-21T07:49:34;14.20;66.30
34927;DHT22;21132;48.308;14.274;2022-09-21T07:51:59;14.20;66.30
34927;DHT22;21132;48.308;14.274;2022-09-21T07:54:25;14.30;66.20
34927;DHT22;21132;48.308;14.274;2022-09-21T07:56:50;14.30;65.90
34927;DHT22;21132;48.308;14.274;2022-09-21T07:59:51;14.30;65.60
34927;DHT22;21132;48.308;14.274;2022-09-21T08:02:17;14.40;65.40
34927;DHT22;21132;48.308;14.274;2022-09-21T08:04:43;14.40;65.30
34927;DHT22;21132;48.308;14.274;2022-09-21T08:07:08;14.50;65.30
34927;DHT22;21132;48.308;14.274;2022-09-21T08:09:34;14.50;65.40
34927;DHT22;21132;48.308;14.274;2022-09-21T08:11:59;14.50;65.30
34927;DHT22;21132;48.308;14.274;2022-09-21T08:14:25;14.60;65.20
34927;DHT22;21132;48.308;14.274;2022-09-21T08:16:51;14.70;65.10
34927;DHT22;21132;48.308;14.274;2022-09-21T08:19:16;14.80;65.10
34927;DHT22;21132;48.308;14.274;2022-09-21T08:21:42;14.80;65.00
34927;DHT22;21132;48.308;14.274;2022-09-21T08:24:08;15.00;65.20
34927;DHT22;21132;48.308;14.274;2022-09-21T08:26:34;15.00;65.00
34927;DHT22;21132;48.308;14.274;2022-09-21T08:29:00;15.10;64.90
34927;DHT22;21132;48.308;14.274;2022-09-21T08:31:25;15.20;64.60
34927;DHT22;21132;48.308;14.274;2022-09-21T08:33:51;15.30;64.60
34927;DHT22;21132;48.308;14.274;2022-09-21T08:36:19;15.40;64.80
34927;DHT22;21132;48.308;14.274;2022-09-21T08:38:44;15.50;64.70
34927;DHT22;21132;48.308;14.274;2022-09-21T08:41:34;15.50;64.30
34927;DHT22;21132;48.308;14.274;2022-09-21T08:44:02;15.60;64.70
34927;DHT22;21132;48.308;14.274;2022-09-21T08:46:29;15.70;64.00
34927;DHT22;21132;48.308;14.274;2022-09-21T08:49:10;15.70;63.90
34927;DHT22;21132;48.308;14.274;2022-09-21T08:51:42;15.70;63.80
34927;DHT22;21132;48.308;14.274;2022-09-21T08:54:11;15.90;64.10
34927;DHT22;21132;48.308;14.274;2022-09-21T08:56:39;15.90;64.00
34927;DHT22;21132;48.308;14.274;2022-09-21T08:59:08;16.00;63.50
34927;DHT22;21132;48.308;14.274;2022-09-21T09:01:48;16.10;63.30
34927;DHT22;21132;48.308;14.274;2022-09-21T09:09:18;16.30;63.00
34927;DHT22;21132;48.308;14.274;2022-09-21T09:11:51;16.40;62.60
34927;DHT22;21132;48.308;14.274;2022-09-21T09:22:08;16.60;61.10
34927;DHT22;21132;48.308;14.274;2022-09-21T09:24:44;16.50;60.90
34927;DHT22;21132;48.308;14.274;2022-09-21T09:27:17;16.60;60.90
34927;DHT22;21132;48.308;14.274;2022-09-21T09:29:51;16.60;61.10
34927;DHT22;21132;48.308;14.274;2022-09-21T09:32:20;16.60;61.70
34927;DHT22;21132;48.308;14.274;2022-09-21T09:34:49;16.70;61.80
34927;DHT22;21132;48.308;14.274;2022-09-21T09:37:18;16.70;62.10
34927;DHT22;21132;48.308;14.274;2022-09-21T09:39:48;16.80;62.40
34927;DHT22;21132;48.308;14.274;2022-09-21T09:44:59;16.90;62.10
34927;DHT22;21132;48.308;14.274;2022-09-21T09:47:35;17.00;61.60
34927;DHT22;21132;48.308;14.274;2022-09-21T09:52:37;17.10;61.30
34927;DHT22;21132;48.308;14.274;2022-09-21T09:55:38;17.20;60.80
34927;DHT22;21132;48.308;14.274;2022-09-21T09:57:56;17.20;60.70
34927;DHT22;21132;48.308;14.274;2022-09-21T10:00:23;17.40;61.30
34927;DHT22;21132;48.308;14.274;2022-09-21T10:02:49;17.50;61.20
34927;DHT22;21132;48.308;14.274;2022-09-21T10:07:44;17.70;60.80
34927;DHT22;21132;48.308;14.274;2022-09-21T10:15:30;18.10;59.80
34927;DHT22;21132;48.308;14.274;2022-09-21T10:18:06;18.20;59.50
34927;DHT22;21132;48.308;14.274;2022-09-21T10:20:36;18.20;59.40
34927;DHT22;21132;48.308;14.274;2022-09-21T10:23:01;18.40;59.80
34927;DHT22;21132;48.308;14.274;2022-09-21T10:25:29;18.50;59.20
34927;DHT22;21132;48.308;14.274;2022-09-21T10:27:55;18.50;58.50
34927;DHT22;21132;48.308;14.274;2022-09-21T10:30:34;18.60;58.00
34927;DHT22;21132;48.308;14.274;2022-09-21T10:33:00;18.60;57.70
34927;DHT22;21132;48.308;14.274;2022-09-21T10:35:26;18.60;57.60
34927;DHT22;21132;48.308;14.274;2022-09-21T10:40:56;18.70;57.70
34927;DHT22;21132;48.308;14.274;2022-09-21T10:43:33;18.80;57.40
34927;DHT22;21132;48.308;14.274;2022-09-21T10:45:59;18.90;57.10
34927;DHT22;21132;48.308;14.274;2022-09-21T10:48:25;18.90;56.90
34927;DHT22;21132;48.308;14.274;2022-09-21T10:50:52;18.90;56.90
34927;DHT22;21132;48.308;14.274;2022-09-21T10:58:22;19.10;57.20
34927;DHT22;21132;48.308;14.274;2022-09-21T11:00:48;19.10;56.90
34927;DHT22;21132;48.308;14.274;2022-09-21T11:05:57;19.20;57.20
34927;DHT22;21132;48.308;14.274;2022-09-21T11:08:31;19.30;57.10
34927;DHT22;21132;48.308;14.274;2022-09-21T11:11:04;19.40;57.20
34927;DHT22;21132;48.308;14.274;2022-09-21T11:13:48;19.50;57.20
34927;DHT22;21132;48.308;14.274;2022-09-21T11:16:23;19.60;57.00
34927;DHT22;21132;48.308;14.274;2022-09-21T11:18:53;19.80;56.70
34927;DHT22;21132;48.308;14.274;2022-09-21T11:21:39;20.00;57.00
34927;DHT22;21132;48.308;14.274;2022-09-21T11:24:15;20.10;57.00
34927;DHT22;21132;48.308;14.274;2022-09-21T11:26:45;20.20;56.20
34927;DHT22;21132;48.308;14.274;2022-09-21T11:37:39;20.80;55.20
34927;DHT22;21132;48.308;14.274;2022-09-21T11:52:44;21.30;54.40
34927;DHT22;21132;48.308;14.274;2022-09-21T11:57:51;21.30;53.70
34927;DHT22;21132;48.308;14.274;2022-09-21T12:00:19;21.20;53.50
34927;DHT22;21132;48.308;14.274;2022-09-21T12:02:59;21.20;53.20
34927;DHT22;21132;48.308;14.274;2022-09-21T12:05:34;21.10;53.00
34927;DHT22;21132;48.308;14.274;2022-09-21T12:13:22;21.00;53.00
34927;DHT22;21132;48.308;14.274;2022-09-21T12:16:02;20.90;53.30
34927;DHT22;21132;48.308;14.274;2022-09-21T12:18:45;20.90;53.50
34927;DHT22;21132;48.308;14.274;2022-09-21T12:23:45;21.00;53.70
34927;DHT22;21132;48.308;14.274;2022-09-21T12:26:15;21.10;53.70
34927;DHT22;21132;48.308;14.274;2022-09-21T12:28:48;21.20;53.60
34927;DHT22;21132;48.308;14.274;2022-09-21T12:31:18;21.30;53.70
34927;DHT22;21132;48.308;14.274;2022-09-21T12:33:50;21.40;53.50
34927;DHT22;21132;48.308;14.274;2022-09-21T12:36:32;21.50;53.70
34927;DHT22;21132;48.308;14.274;2022-09-21T12:39:04;21.60;53.10
34927;DHT22;21132;48.308;14.274;2022-09-21T12:41:36;21.70;52.40
34927;DHT22;21132;48.308;14.274;2022-09-21T12:44:18;21.70;52.00
34927;DHT22;21132;48.308;14.274;2022-09-21T12:46:57;21.70;51.50
34927;DHT22;21132;48.308;14.274;2022-09-21T12:49:35;21.70;51.20
34927;DHT22;21132;48.308;14.274;2022-09-21T12:52:02;21.70;51.40
34927;DHT22;21132;48.308;14.274;2022-09-21T12:54:34;21.60;51.50
34927;DHT22;21132;48.308;14.274;2022-09-21T13:00:03;21.50;50.70
34927;DHT22;21132;48.308;14.274;2022-09-21T13:02:26;21.50;50.90
34927;DHT22;21132;48.308;14.274;2022-09-21T13:07:44;21.30;51.20
34927;DHT22;21132;48.308;14.274;2022-09-21T13:12:46;21.20;51.00
34927;DHT22;21132;48.308;14.274;2022-09-21T13:15:21;21.20;51.10
34927;DHT22;21132;48.308;14.274;2022-09-21T13:18:23;21.20;51.40
34927;DHT22;21132;48.308;14.274;2022-09-21T13:20:42;21.20;51.20
34927;DHT22;21132;48.308;14.274;2022-09-21T13:23:15;21.30;51.20
34927;DHT22;21132;48.308;14.274;2022-09-21T13:25:41;21.30;51.10
34927;DHT22;21132;48.308;14.274;2022-09-21T13:40:59;21.80;50.50
34927;DHT22;21132;48.308;14.274;2022-09-21T13:46:45;22.00;49.30
34927;DHT22;21132;48.308;14.274;2022-09-21T13:54:19;22.00;47.60
34927;DHT22;21132;48.308;14.274;2022-09-21T13:56:45;21.90;47.40
34927;DHT22;21132;48.308;14.274;2022-09-21T13:59:19;21.80;47.10
34927;DHT22;21132;48.308;14.274;2022-09-21T14:01:45;21.80;47.50
34927;DHT22;21132;48.308;14.274;2022-09-21T14:04:16;21.70;47.50
34927;DHT22;21132;48.308;14.274;2022-09-21T14:06:43;21.70;47.40
34927;DHT22;21132;48.308;14.274;2022-09-21T14:09:19;21.70;47.40
34927;DHT22;21132;48.308;14.274;2022-09-21T14:11:46;21.60;47.20
34927;DHT22;21132;48.308;14.274;2022-09-21T14:14:26;21.60;47.10
34927;DHT22;21132;48.308;14.274;2022-09-21T14:16:53;21.60;47.20
34927;DHT22;21132;48.308;14.274;2022-09-21T14:24:42;21.60;47.20
34927;DHT22;21132;48.308;14.274;2022-09-21T14:29:57;21.50;46.80
34927;DHT22;21132;48.308;14.274;2022-09-21T14:32:25;21.50;46.60
34927;DHT22;21132;48.308;14.274;2022-09-21T14:34:54;21.50;46.70
34927;DHT22;21132;48.308;14.274;2022-09-21T14:37:26;21.40;46.60
34927;DHT22;21132;48.308;14.274;2022-09-21T14:39:53;21.40;46.90
34927;DHT22;21132;48.308;14.274;2022-09-21T14:42:20;21.40;47.10
34927;DHT22;21132;48.308;14.274;2022-09-21T14:44:48;21.50;47.30
34927;DHT22;21132;48.308;14.274;2022-09-21T14:49:52;22.00;48.70
34927;DHT22;21132;48.308;14.274;2022-09-21T15:00:15;23.70;47.70
34927;DHT22;21132;48.308;14.274;2022-09-21T15:02:45;24.00;47.00
34927;DHT22;21132;48.308;14.274;2022-09-21T15:05:17;24.30;45.70
34927;DHT22;21132;48.308;14.274;2022-09-21T15:07:54;24.60;45.60
34927;DHT22;21132;48.308;14.274;2022-09-21T15:18:47;26.50;43.30
34927;DHT22;21132;48.308;14.274;2022-09-21T15:21:21;26.50;41.80
34927;DHT22;21132;48.308;14.274;2022-09-21T15:23:48;26.50;40.70
34927;DHT22;21132;48.308;14.274;2022-09-21T15:26:27;26.20;40.30
34927;DHT22;21132;48.308;14.274;2022-09-21T15:28:56;25.90;40.00
34927;DHT22;21132;48.308;14.274;2022-09-21T15:31:22;25.60;39.90
34927;DHT22;21132;48.308;14.274;2022-09-21T15:33:48;25.20;39.70
34927;DHT22;21132;48.308;14.274;2022-09-21T15:36:22;24.80;39.90
34927;DHT22;21132;48.308;14.274;2022-09-21T15:38:49;24.50;40.10
34927;DHT22;21132;48.308;14.274;2022-09-21T15:44:10;23.70;40.40
34927;DHT22;21132;48.308;14.274;2022-09-21T15:46:37;23.40;40.90
34927;DHT22;21132;48.308;14.274;2022-09-21T15:49:02;23.10;41.30
34927;DHT22;21132;48.308;14.274;2022-09-21T15:51:30;22.80;41.60
34927;DHT22;21132;48.308;14.274;2022-09-21T15:53:58;22.50;41.80
34927;DHT22;21132;48.308;14.274;2022-09-21T15:56:29;22.20;42.10
34927;DHT22;21132;48.308;14.274;2022-09-21T15:58:58;22.00;42.40
34927;DHT22;21132;48.308;14.274;2022-09-21T16:01:32;21.70;42.40
34927;DHT22;21132;48.308;14.274;2022-09-21T16:04:05;21.50;42.70
34927;DHT22;21132;48.308;14.274;2022-09-21T16:06:35;21.20;42.40
34927;DHT22;21132;48.308;14.274;2022-09-21T16:11:45;20.80;42.30
34927;DHT22;21132;48.308;14.274;2022-09-21T16:14:14;20.50;42.50
34927;DHT22;21132;48.308;14.274;2022-09-21T16:19:40;20.10;42.40
34927;DHT22;21132;48.308;14.274;2022-09-21T16:22:10;19.90;42.70
34927;DHT22;21132;48.308;14.274;2022-09-21T16:24:42;19.80;42.90
34927;DHT22;21132;48.308;14.274;2022-09-21T16:27:12;19.60;42.90
34927;DHT22;21132;48.308;14.274;2022-09-21T16:29:40;19.40;43.20
34927;DHT22;21132;48.308;14.274;2022-09-21T16:34:41;19.20;43.70
34927;DHT22;21132;48.308;14.274;2022-09-21T16:39:53;19.00;43.80
34927;DHT22;21132;48.308;14.274;2022-09-21T16:42:23;18.90;44.20
34927;DHT22;21132;48.308;14.274;2022-09-21T16:44:51;18.80;44.20
34927;DHT22;21132;48.308;14.274;2022-09-21T16:47:18;18.80;44.50
34927;DHT22;21132;48.308;14.274;2022-09-21T16:49:47;18.70;44.70
34927;DHT22;21132;48.308;14.274;2022-09-21T16:52:12;18.60;44.70
34927;DHT22;21132;48.308;14.274;2022-09-21T16:54:40;18.60;45.00
34927;DHT22;21132;48.308;14.274;2022-09-21T16:57:06;18.50;45.10
34927;DHT22;21132;48.308;14.274;2022-09-21T16:59:31;18.40;45.30
34927;DHT22;21132;48.308;14.274;2022-09-21T17:01:59;18.30;45.50
34927;DHT22;21132;48.308;14.274;2022-09-21T17:04:25;18.20;45.70
34927;DHT22;21132;48.308;14.274;2022-09-21T17:06:51;18.20;46.00
34927;DHT22;21132;48.308;14.274;2022-09-21T17:09:18;18.10;46.20
34927;DHT22;21132;48.308;14.274;2022-09-21T17:11:44;18.00;46.40
34927;DHT22;21132;48.308;14.274;2022-09-21T17:14:11;17.90;46.70
34927;DHT22;21132;48.308;14.274;2022-09-21T17:16:41;17.80;46.90
34927;DHT22;21132;48.308;14.274;2022-09-21T17:19:07;17.70;47.10
34927;DHT22;21132;48.308;14.274;2022-09-21T17:21:33;17.60;47.30
34927;DHT22;21132;48.308;14.274;2022-09-21T17:23:59;17.50;47.50
34927;DHT22;21132;48.308;14.274;2022-09-21T17:26:25;17.50;47.70
34927;DHT22;21132;48.308;14.274;2022-09-21T17:28:51;17.40;47.80
34927;DHT22;21132;48.308;14.274;2022-09-21T17:31:17;17.40;47.90
34927;DHT22;21132;48.308;14.274;2022-09-21T17:33:47;17.30;48.00
34927;DHT22;21132;48.308;14.274;2022-09-21T17:36:14;17.20;48.10
34927;DHT22;21132;48.308;14.274;2022-09-21T17:38:40;17.20;48.30
34927;DHT22;21132;48.308;14.274;2022-09-21T17:46:21;17.00;48.50
34927;DHT22;21132;48.308;14.274;2022-09-21T17:48:49;17.00;48.80
34927;DHT22;21132;48.308;14.274;2022-09-21T17:51:14;16.90;48.90
34927;DHT22;21132;48.308;14.274;2022-09-21T17:54:00;16.80;49.00
34927;DHT22;21132;48.308;14.274;2022-09-21T17:56:32;16.80;49.20
34927;DHT22;21132;48.308;14.274;2022-09-21T17:59:01;16.70;49.20
34927;DHT22;21132;48.308;14.274;2022-09-21T18:03:56;16.50;49.50
34927;DHT22;21132;48.308;14.274;2022-09-21T18:06:22;16.50;49.70
34927;DHT22;21132;48.308;14.274;2022-09-21T18:08:48;16.40;49.80
34927;DHT22;21132;48.308;14.274;2022-09-21T18:16:33;16.10;50.10
34927;DHT22;21132;48.308;14.274;2022-09-21T18:19:00;16.00;50.20
34927;DHT22;21132;48.308;14.274;2022-09-21T18:21:28;15.80;50.20
34927;DHT22;21132;48.308;14.274;2022-09-21T18:26:40;15.60;50.50
34927;DHT22;21132;48.308;14.274;2022-09-21T18:29:15;15.50;50.80